Time;durP1;ratioP1;P1;durP2;ratioP2;P2;SDS_P1;SDS_P2;PMS_P1;PMS_P2;Temp;Humidity;BMP_temperature;BMP_pressure;BME280_temperature;BME280_humidity;BME280_pressure;Samples;Min_cycle;Max_cycle;Signal;HPM_P1;HPM_P2
2023/11/28 00:02:02;;;;;;;6.35;3.83;;;3.70;99.90;;;;;;5005276;28;20108;-93
2023/11/28 00:04:28;;;;;;;7.00;3.80;;;3.70;99.90;;;;;;4991392;28;20038;-92
2023/11/28 00:06:57;;;;;;;6.07;3.50;;;3.60;99.90;;;;;;5007223;28;20037;-91
2023/11/28 00:09:23;;;;;;;4.38;3.35;;;3.60;99.90;;;;;;5008843;28;20065;-89
2023/11/28 00:11:48;;;;;;;4.07;3.13;;;3.70;99.90;;;;;;4990209;28;20304;-91
2023/11/28 00:14:16;;;;;;;4.40;2.75;;;3.70;99.90;;;;;;4987931;28;20030;-91
2023/11/28 00:16:42;;;;;;;4.65;3.03;;;3.60;99.90;;;;;;4987388;28;20041;-90
2023/11/28 00:19:08;;;;;;;4.53;3.08;;;3.60;99.90;;;;;;4992609;28;20042;-92
2023/11/28 00:21:34;;;;;;;4.38;3.00;;;3.70;99.90;;;;;;4977329;28;20072;-90
2023/11/28 00:24:02;;;;;;;7.35;2.85;;;3.80;99.90;;;;;;4991200;28;20030;-90
2023/11/28 00:26:27;;;;;;;4.07;2.90;;;3.80;99.90;;;;;;4990046;28;20054;-92
2023/11/28 00:28:53;;;;;;;5.20;2.92;;;3.60;99.90;;;;;;4994417;28;20054;-92
2023/11/28 00:31:20;;;;;;;4.22;2.88;;;3.60;99.90;;;;;;4991311;28;20026;-92
2023/11/28 00:33:47;;;;;;;4.80;2.80;;;3.80;99.90;;;;;;4993746;28;20230;-92
2023/11/28 00:36:18;;;;;;;4.78;2.78;;;3.80;99.90;;;;;;4974998;28;20054;-92
2023/11/28 00:38:44;;;;;;;5.07;3.20;;;3.70;99.90;;;;;;4989275;28;20054;-92
2023/11/28 00:41:14;;;;;;;4.85;2.75;;;3.60;99.90;;;;;;4990295;28;20327;-90
2023/11/28 00:43:40;;;;;;;3.65;2.33;;;3.60;99.90;;;;;;4990659;28;20030;-92
2023/11/28 00:46:06;;;;;;;3.92;2.40;;;3.70;99.90;;;;;;4990929;28;20050;-91
2023/11/28 00:48:32;;;;;;;5.70;3.17;;;3.70;99.90;;;;;;5004916;28;20023;-91
2023/11/28 00:51:00;;;;;;;5.78;2.88;;;3.80;99.90;;;;;;5005096;28;20072;-91
2023/11/28 00:53:25;;;;;;;;;;;3.70;99.90;;;;;;4990021;28;20085;-90
2023/11/28 00:55:53;;;;;;;4.00;2.63;;;3.70;99.90;;;;;;5005704;28;19910;-92
2023/11/28 00:58:20;;;;;;;6.00;2.95;;;3.80;99.90;;;;;;4984884;28;20035;-91
2023/11/28 01:00:46;;;;;;;4.13;2.50;;;3.80;99.90;;;;;;4988488;28;20510;-91
2023/11/28 01:03:11;;;;;;;4.75;2.58;;;3.70;99.90;;;;;;4990579;28;20065;-91
2023/11/28 01:05:39;;;;;;;3.58;2.50;;;3.80;99.90;;;;;;4988827;28;20580;-91
2023/11/28 01:08:05;;;;;;;5.10;2.58;;;3.70;99.90;;;;;;4994268;28;20520;-93
2023/11/28 01:10:33;;;;;;;4.38;2.65;;;3.80;99.90;;;;;;4989490;28;20117;-90
2023/11/28 01:12:58;;;;;;;5.40;2.78;;;3.90;99.90;;;;;;4988867;28;20034;-92
2023/11/28 01:15:25;;;;;;;4.47;2.95;;;3.90;99.90;;;;;;4988670;28;20041;-91
2023/11/28 01:17:50;;;;;;;4.47;3.00;;;3.80;99.90;;;;;;4989184;28;20029;-92
2023/11/28 01:20:16;;;;;;;3.22;2.58;;;3.80;99.90;;;;;;5005540;28;20624;-91
2023/11/28 01:22:41;;;;;;;5.82;2.65;;;3.80;99.90;;;;;;4986971;28;20109;-91
2023/11/28 01:25:07;;;;;;;3.15;2.47;;;3.90;99.90;;;;;;4988849;28;20026;-89
2023/11/28 01:27:33;;;;;;;3.78;2.20;;;3.90;99.90;;;;;;4987594;28;20038;-92
2023/11/28 01:29:59;;;;;;;5.03;2.83;;;4.10;99.90;;;;;;5010563;28;20033;-91
2023/11/28 01:32:24;;;;;;;3.90;2.35;;;3.90;99.90;;;;;;4987622;28;20031;-91
2023/11/28 01:34:50;;;;;;;5.38;2.60;;;4.20;99.90;;;;;;4988350;28;20022;-92
2023/11/28 01:37:19;;;;;;;4.43;2.85;;;4.00;99.90;;;;;;4992558;28;20405;-90
2023/11/28 01:39:51;;;;;;;4.80;2.65;;;3.90;99.90;;;;;;4989912;28;20054;-90
2023/11/28 01:42:17;;;;;;;2.90;2.40;;;3.70;99.90;;;;;;4986277;28;20030;-91
2023/11/28 01:44:43;;;;;;;4.72;3.05;;;3.90;99.90;;;;;;4986955;28;20045;-91
2023/11/28 01:47:08;;;;;;;5.05;3.13;;;3.70;99.90;;;;;;4988211;28;20124;-91
2023/11/28 01:49:37;;;;;;;3.17;1.83;;;3.70;99.90;;;;;;5004536;28;20196;-91
2023/11/28 01:52:09;;;;;;;5.10;2.70;;;3.70;99.90;;;;;;4970219;28;20088;-91
2023/11/28 01:54:38;;;;;;;5.72;2.83;;;3.80;99.90;;;;;;4982016;28;20034;-91
2023/11/28 01:57:04;;;;;;;4.60;2.50;;;3.90;99.90;;;;;;5003690;28;20038;-91
2023/11/28 01:59:33;;;;;;;5.50;3.22;;;3.70;99.90;;;;;;4987718;28;20034;-89
2023/11/28 02:01:58;;;;;;;4.70;2.92;;;3.80;99.90;;;;;;5002973;28;20660;-88
2023/11/28 02:04:26;;;;;;;5.68;3.08;;;4.00;99.90;;;;;;4986081;28;20121;-90
2023/11/28 02:06:56;;;;;;;5.32;3.03;;;3.90;99.90;;;;;;4988099;28;20029;-91
2023/11/28 02:09:21;;;;;;;4.05;2.35;;;3.80;99.90;;;;;;5004510;28;20516;-91
2023/11/28 02:11:47;;;;;;;7.25;3.13;;;3.90;99.90;;;;;;5001853;28;20038;-92
2023/11/28 02:14:15;;;;;;;6.15;3.20;;;4.20;99.90;;;;;;4986902;28;20030;-91
2023/11/28 02:16:41;;;;;;;3.80;2.65;;;3.90;99.90;;;;;;4990671;28;20035;-90
2023/11/28 02:19:08;;;;;;;5.68;2.88;;;3.80;99.90;;;;;;4986682;28;20531;-91
2023/11/28 02:21:34;;;;;;;6.90;3.50;;;4.00;99.90;;;;;;4967625;28;20727;-89
2023/11/28 02:24:03;;;;;;;5.45;3.47;;;4.10;99.90;;;;;;4988770;28;20046;-91
2023/11/28 02:26:28;;;;;;;6.93;3.60;;;3.90;99.90;;;;;;4982502;28;20065;-91
2023/11/28 02:28:57;;;;;;;7.47;3.50;;;3.80;99.90;;;;;;4989991;28;20030;-90
2023/11/28 02:31:25;;;;;;;5.25;2.88;;;3.90;99.90;;;;;;4985030;28;20030;-90
2023/11/28 02:33:51;;;;;;;6.13;3.80;;;4.00;99.90;;;;;;5001288;28;20046;-90
2023/11/28 02:36:19;;;;;;;6.95;3.05;;;3.80;99.90;;;;;;4993328;28;20431;-91
2023/11/28 02:38:45;;;;;;;6.05;3.63;;;3.90;99.90;;;;;;4987762;28;20104;-90
2023/11/28 02:41:10;;;;;;;6.70;3.30;;;3.80;99.90;;;;;;5004631;28;20038;-90
2023/11/28 02:43:37;;;;;;;4.82;2.85;;;3.90;99.90;;;;;;4987467;28;20026;-88
2023/11/28 02:46:05;;;;;;;8.32;3.45;;;3.80;99.90;;;;;;4987193;28;20035;-91
2023/11/28 02:48:30;;;;;;;7.65;3.80;;;3.80;99.90;;;;;;4989010;28;20030;-91
2023/11/28 02:50:57;;;;;;;6.97;3.45;;;3.80;99.90;;;;;;4989092;28;20033;-91
2023/11/28 02:53:23;;;;;;;6.82;3.63;;;3.70;99.90;;;;;;4972645;28;20104;-90
2023/11/28 02:55:48;;;;;;;6.85;3.97;;;3.70;99.90;;;;;;4988157;28;20449;-90
2023/11/28 02:58:14;;;;;;;8.30;3.70;;;3.70;99.90;;;;;;4988396;28;20038;-89
2023/11/28 03:00:39;;;;;;;6.25;3.55;;;3.70;99.90;;;;;;4987306;28;20114;-91
2023/11/28 03:03:05;;;;;;;5.68;3.22;;;3.90;99.90;;;;;;4987572;28;20085;-89
2023/11/28 03:05:31;;;;;;;6.53;3.47;;;3.80;99.90;;;;;;5005617;28;20033;-89
2023/11/28 03:07:59;;;;;;;6.15;3.05;;;3.70;99.90;;;;;;4989439;28;20118;-89
2023/11/28 03:10:26;;;;;;;5.43;3.20;;;3.90;99.90;;;;;;4989053;28;20062;-90
2023/11/28 03:12:52;;;;;;;7.70;3.80;;;3.80;99.90;;;;;;4991728;28;20022;-90
2023/11/28 03:15:20;;;;;;;6.07;3.25;;;3.80;99.90;;;;;;4972240;28;20478;-91
2023/11/28 03:17:48;;;;;;;7.93;3.95;;;3.80;99.90;;;;;;4989845;28;20135;-90
2023/11/28 03:20:15;;;;;;;7.43;3.15;;;3.80;99.90;;;;;;4989720;28;20461;-89
2023/11/28 03:22:40;;;;;;;8.07;3.88;;;3.80;99.90;;;;;;4986330;28;20065;-89
2023/11/28 03:25:11;;;;;;;5.93;3.75;;;3.70;99.90;;;;;;5002896;28;20057;-91
2023/11/28 03:27:37;;;;;;;8.32;3.38;;;3.70;99.90;;;;;;4985782;28;20057;-88
2023/11/28 03:30:04;;;;;;;5.78;3.70;;;3.70;99.90;;;;;;4987145;28;20973;-88
2023/11/28 03:32:30;;;;;;;7.28;3.90;;;3.70;99.90;;;;;;4990087;28;20295;-89
2023/11/28 03:34:58;;;;;;;9.43;4.50;;;3.70;99.90;;;;;;4988244;28;20440;-90
2023/11/28 03:37:24;;;;;;;9.27;4.47;;;3.90;99.90;;;;;;4986695;28;20092;-87
2023/11/28 03:39:50;;;;;;;9.90;4.28;;;3.90;99.90;;;;;;4992064;28;20043;-89
2023/11/28 03:42:16;;;;;;;8.85;4.50;;;3.80;99.90;;;;;;4989712;28;20037;-90
2023/11/28 03:44:41;;;;;;;7.32;3.80;;;3.90;99.90;;;;;;4974168;28;20038;-89
2023/11/28 03:47:07;;;;;;;11.50;4.38;;;3.90;99.90;;;;;;4991120;28;20034;-89
2023/11/28 03:49:35;;;;;;;9.18;4.57;;;3.80;99.90;;;;;;4991439;28;20096;-89
2023/11/28 03:52:00;;;;;;;;;;;3.70;99.90;;;;;;4989836;28;20507;-89
2023/11/28 03:54:28;;;;;;;9.30;4.40;;;3.90;99.90;;;;;;4990747;28;20004;-89
2023/11/28 03:56:58;;;;;;;13.85;5.05;;;3.80;99.90;;;;;;4990690;28;20172;-90
2023/11/28 03:59:24;;;;;;;9.80;4.15;;;3.80;99.90;;;;;;4989332;28;20066;-90
2023/11/28 04:01:49;;;;;;;9.70;4.95;;;3.80;99.90;;;;;;4989798;28;20026;-90
2023/11/28 04:04:15;;;;;;;10.85;4.57;;;3.90;99.90;;;;;;4988885;28;20088;-91
2023/11/28 04:06:41;;;;;;;10.07;5.22;;;3.80;99.90;;;;;;4974896;28;20039;-89
2023/11/28 04:09:07;;;;;;;11.05;4.85;;;3.80;99.90;;;;;;4990294;28;20052;-88
2023/11/28 04:11:35;;;;;;;13.85;5.43;;;3.60;99.90;;;;;;4990081;28;20022;-90
2023/11/28 04:14:01;;;;;;;11.25;4.75;;;3.60;99.90;;;;;;4976461;28;20501;-90
2023/11/28 04:16:27;;;;;;;12.07;5.05;;;3.50;99.90;;;;;;4990768;28;20074;-87
2023/11/28 04:18:53;;;;;;;9.23;4.70;;;3.50;99.90;;;;;;4989000;28;20520;-89
2023/11/28 04:21:19;;;;;;;11.07;5.00;;;3.70;99.90;;;;;;4991152;28;20544;-90
2023/11/28 04:23:50;;;;;;;15.00;4.95;;;3.60;99.90;;;;;;4988253;28;20307;-90
2023/11/28 04:26:16;;;;;;;11.38;4.45;;;3.70;99.90;;;;;;4990725;28;20037;-90
2023/11/28 04:28:46;;;;;;;14.27;5.05;;;3.60;99.90;;;;;;4990440;28;20030;-89
2023/11/28 04:31:17;;;;;;;10.80;4.60;;;3.60;99.90;;;;;;4986926;28;20033;-90
2023/11/28 04:33:42;;;;;;;15.75;4.80;;;3.60;99.90;;;;;;5005419;28;20117;-90
2023/11/28 04:36:08;;;;;;;9.85;4.70;;;3.60;99.90;;;;;;4993114;28;20121;-90
2023/11/28 04:38:36;;;;;;;13.15;5.03;;;3.70;99.90;;;;;;4990322;28;20042;-91
2023/11/28 04:41:02;;;;;;;16.02;5.22;;;3.70;99.90;;;;;;4990082;28;20030;-90
2023/11/28 04:43:33;;;;;;;8.63;4.38;;;3.80;99.90;;;;;;4989010;28;20027;-89
2023/11/28 04:45:59;;;;;;;10.60;4.32;;;3.60;99.90;;;;;;4989505;28;20037;-90
2023/11/28 04:48:24;;;;;;;10.00;4.55;;;3.60;99.90;;;;;;4990569;28;20030;-90
2023/11/28 04:50:50;;;;;;;10.45;4.25;;;3.60;99.90;;;;;;4987043;28;20035;-91
2023/11/28 04:53:18;;;;;;;7.65;4.05;;;3.80;99.90;;;;;;4990734;28;20038;-91
2023/11/28 04:55:43;;;;;;;10.88;4.28;;;3.70;99.90;;;;;;4988996;28;20057;-89
2023/11/28 04:58:09;;;;;;;9.55;3.70;;;3.60;99.90;;;;;;4988942;28;20619;-90
2023/11/28 05:00:34;;;;;;;7.57;4.10;;;3.70;99.90;;;;;;4988452;28;20019;-89
2023/11/28 05:03:00;;;;;;;12.20;4.32;;;3.60;99.90;;;;;;4989699;28;20057;-89
2023/11/28 05:05:26;;;;;;;10.07;4.18;;;3.60;99.90;;;;;;4968661;28;20036;-90
2023/11/28 05:07:51;;;;;;;11.15;3.97;;;3.60;99.90;;;;;;4989701;28;20490;-90
2023/11/28 05:10:17;;;;;;;15.35;4.10;;;3.50;99.90;;;;;;4986734;28;20070;-91
2023/11/28 05:12:42;;;;;;;7.45;3.53;;;3.50;99.90;;;;;;4989027;28;20041;-91
2023/11/28 05:15:08;;;;;;;9.23;3.42;;;3.50;99.90;;;;;;4989110;28;20030;-92
2023/11/28 05:17:34;;;;;;;9.52;3.63;;;3.40;99.90;;;;;;4989398;28;20121;-91
2023/11/28 05:19:59;;;;;;;9.68;3.40;;;3.50;99.90;;;;;;4989065;28;20448;-89
2023/11/28 05:22:25;;;;;;;10.90;3.67;;;3.40;99.90;;;;;;4994561;28;20030;-90
2023/11/28 05:24:53;;;;;;;9.35;3.33;;;3.40;99.90;;;;;;4989700;28;20046;-91
2023/11/28 05:27:19;;;;;;;8.85;3.25;;;3.40;99.90;;;;;;4987268;28;20096;-89
2023/11/28 05:29:44;;;;;;;8.43;3.30;;;3.50;99.90;;;;;;4970723;28;20035;-91
2023/11/28 05:32:10;;;;;;;8.20;3.67;;;3.40;99.90;;;;;;4989919;28;20034;-91
2023/11/28 05:34:36;;;;;;;6.78;2.92;;;3.30;99.90;;;;;;4985251;28;20072;-92
2023/11/28 05:37:01;;;;;;;8.65;3.58;;;3.30;99.90;;;;;;4990475;28;20026;-91
2023/11/28 05:39:28;;;;;;;6.88;2.88;;;3.20;99.90;;;;;;5004826;28;20061;-89
2023/11/28 05:41:56;;;;;;;8.50;3.10;;;3.10;99.90;;;;;;4986480;28;20505;-91
2023/11/28 05:44:22;;;;;;;11.02;2.72;;;3.10;99.90;;;;;;4988267;28;20658;-90
2023/11/28 05:46:48;;;;;;;5.50;2.88;;;3.20;99.90;;;;;;4987120;28;20121;-89
2023/11/28 05:49:18;;;;;;;8.52;3.78;;;3.30;99.90;;;;;;4995079;28;20106;-89
2023/11/28 05:51:46;;;;;;;9.85;2.42;;;3.30;99.90;;;;;;5002069;28;20525;-92
2023/11/28 05:54:12;;;;;;;6.53;2.83;;;3.30;99.90;;;;;;4996829;28;20038;-91
2023/11/28 05:56:40;;;;;;;8.32;3.00;;;3.30;99.90;;;;;;5002223;28;20068;-91
2023/11/28 05:59:06;;;;;;;5.88;2.58;;;3.20;99.90;;;;;;4986043;28;20030;-91
2023/11/28 06:01:34;;;;;;;3.92;2.10;;;3.20;99.90;;;;;;4987112;28;20037;-90
2023/11/28 06:04:00;;;;;;;5.93;2.40;;;3.30;99.90;;;;;;4989426;28;20034;-90
2023/11/28 06:06:28;;;;;;;9.18;2.53;;;3.40;99.90;;;;;;4989592;28;20030;-90
2023/11/28 06:08:53;;;;;;;4.30;1.80;;;3.00;99.90;;;;;;4986962;28;20027;-91
2023/11/28 06:11:19;;;;;;;6.28;2.05;;;3.20;99.90;;;;;;4989212;28;20030;-91
2023/11/28 06:13:44;;;;;;;5.57;2.15;;;3.00;99.90;;;;;;5003520;28;20516;-91
2023/11/28 06:16:10;;;;;;;4.40;1.95;;;3.00;99.90;;;;;;4987700;28;20521;-91
2023/11/28 06:18:38;;;;;;;5.60;2.97;;;3.00;99.90;;;;;;4988392;28;20142;-92
2023/11/28 06:21:08;;;;;;;5.13;2.83;;;3.00;99.90;;;;;;5003438;28;20031;-90
2023/11/28 06:23:39;;;;;;;5.93;2.70;;;3.00;99.90;;;;;;5004263;28;20038;-92
2023/11/28 06:26:05;;;;;;;5.55;2.25;;;3.20;99.90;;;;;;4973296;28;20057;-93
2023/11/28 06:28:30;;;;;;;7.22;2.45;;;2.90;99.90;;;;;;5006397;28;20026;-93
2023/11/28 06:30:56;;;;;;;6.65;2.90;;;3.00;99.90;;;;;;4990458;28;20195;-93
2023/11/28 06:33:25;;;;;;;5.82;2.30;;;2.90;99.90;;;;;;4987515;28;20108;-93
2023/11/28 06:35:53;;;;;;;4.30;2.20;;;2.90;99.90;;;;;;4988226;28;20110;-92
2023/11/28 06:38:19;;;;;;;4.07;2.05;;;3.00;99.90;;;;;;4994146;28;20035;-93
2023/11/28 06:40:45;;;;;;;5.95;2.10;;;2.90;99.90;;;;;;4993283;28;20044;-92
2023/11/28 06:43:15;;;;;;;4.32;2.00;;;3.10;99.90;;;;;;4992412;28;20597;-93
2023/11/28 06:45:43;;;;;;;3.75;1.63;;;3.00;99.90;;;;;;4987181;28;20077;-93
2023/11/28 06:48:11;;;;;;;3.55;1.58;;;3.00;99.90;;;;;;4989912;28;20112;-92
2023/11/28 06:50:37;;;;;;;4.47;2.10;;;2.90;99.90;;;;;;4988728;28;20018;-92
2023/11/28 06:53:02;;;;;;;3.20;1.70;;;2.80;99.90;;;;;;4989146;28;20644;-91
2023/11/28 06:55:30;;;;;;;3.42;1.80;;;3.00;99.90;;;;;;4989045;28;20030;-90
2023/11/28 06:57:56;;;;;;;;;;;3.00;99.90;;;;;;4991135;28;20125;-93
2023/11/28 07:00:24;;;;;;;6.32;1.77;;;2.80;99.90;;;;;;4988680;28;20032;-93
2023/11/28 07:02:50;;;;;;;4.78;1.98;;;3.00;99.90;;;;;;4985148;28;20038;-90
2023/11/28 07:05:18;;;;;;;5.07;1.73;;;3.00;99.90;;;;;;4990118;28;20026;-92
2023/11/28 07:07:48;;;;;;;7.70;2.15;;;2.70;99.90;;;;;;5004241;28;20034;-92
2023/11/28 07:10:14;;;;;;;5.78;1.73;;;2.80;99.90;;;;;;4987123;28;20027;-93
2023/11/28 07:12:57;;;;;;;3.72;1.58;;;2.90;99.90;;;;;;5004761;28;20606;-93
2023/11/28 07:15:22;;;;;;;3.05;1.85;;;2.90;99.90;;;;;;5005005;28;20053;-93
2023/11/28 07:17:49;;;;;;;6.63;2.22;;;2.80;99.90;;;;;;4994856;28;20034;-92
2023/11/28 07:20:15;;;;;;;4.28;1.67;;;2.70;99.90;;;;;;5000729;28;20050;-92
2023/11/28 07:22:41;;;;;;;5.35;1.73;;;2.70;99.90;;;;;;4995553;28;20054;-92
2023/11/28 07:25:09;;;;;;;3.80;1.60;;;2.90;99.90;;;;;;4996131;28;20037;-93
2023/11/28 07:27:35;;;;;;;5.82;2.45;;;2.70;99.90;;;;;;4999654;28;20068;-94
2023/11/28 07:30:02;;;;;;;4.35;1.70;;;2.60;99.90;;;;;;4996070;28;20034;-93
2023/11/28 07:32:28;;;;;;;3.15;1.40;;;2.70;99.90;;;;;;4995550;28;20624;-90
2023/11/28 07:34:53;;;;;;;3.08;1.30;;;2.60;99.90;;;;;;4995814;28;20037;-93
2023/11/28 07:37:19;;;;;;;2.85;1.67;;;2.50;99.90;;;;;;5012811;28;20112;-93
2023/11/28 07:39:45;;;;;;;2.35;1.42;;;2.60;99.90;;;;;;5014142;28;20034;-93
2023/11/28 07:42:10;;;;;;;3.20;1.63;;;2.40;99.90;;;;;;4995443;28;20030;-92
2023/11/28 07:44:38;;;;;;;6.03;2.30;;;2.40;99.90;;;;;;4990651;28;20030;-93
2023/11/28 07:47:03;;;;;;;4.45;1.55;;;2.40;99.90;;;;;;4997045;28;20034;-93
2023/11/28 07:49:29;;;;;;;2.80;1.27;;;2.30;99.90;;;;;;4997048;28;20053;-93
2023/11/28 07:51:55;;;;;;;2.70;1.63;;;2.40;99.90;;;;;;4997035;28;20062;-93
2023/11/28 07:54:21;;;;;;;2.70;1.65;;;2.50;99.90;;;;;;4996288;28;20061;-93
2023/11/28 07:56:47;;;;;;;3.35;1.50;;;2.50;99.90;;;;;;4995256;28;20452;-92
2023/11/28 07:59:15;;;;;;;5.20;1.73;;;2.50;99.90;;;;;;4995805;28;20050;-92
2023/11/28 08:01:43;;;;;;;4.63;1.55;;;2.30;99.90;;;;;;5000528;28;20034;-93
2023/11/28 08:04:14;;;;;;;3.40;1.38;;;2.30;99.90;;;;;;4993899;28;20045;-92
2023/11/28 08:06:40;;;;;;;4.75;1.92;;;2.40;99.90;;;;;;5015807;28;20034;-92
2023/11/28 08:09:07;;;;;;;4.45;2.10;;;2.30;99.90;;;;;;5009643;28;20357;-93
2023/11/28 08:11:35;;;;;;;4.25;1.90;;;2.30;99.90;;;;;;4996761;28;20665;-93
2023/11/28 08:14:01;;;;;;;5.95;2.20;;;2.30;99.90;;;;;;5012162;28;20030;-93
2023/11/28 08:16:27;;;;;;;5.40;2.40;;;2.30;99.90;;;;;;4996419;28;20045;-93
2023/11/28 08:18:55;;;;;;;4.45;2.05;;;2.30;99.90;;;;;;5000012;28;20034;-93
2023/11/28 08:21:20;;;;;;;6.00;2.28;;;2.30;99.90;;;;;;4994867;28;20065;-92
2023/11/28 08:23:47;;;;;;;7.45;2.63;;;2.30;99.90;;;;;;4994037;28;20478;-93
2023/11/28 08:26:14;;;;;;;12.35;3.25;;;2.50;99.90;;;;;;5013142;28;20034;-93
2023/11/28 08:28:40;;;;;;;8.13;2.20;;;2.40;99.90;;;;;;5004506;28;20026;-93
2023/11/28 08:31:10;;;;;;;4.43;2.35;;;2.50;99.90;;;;;;4991790;28;20030;-93
2023/11/28 08:33:36;;;;;;;6.13;2.63;;;2.30;99.90;;;;;;4996110;28;20018;-93
2023/11/28 08:36:02;;;;;;;3.45;1.55;;;2.30;99.90;;;;;;4981490;28;20038;-94
2023/11/28 08:38:29;;;;;;;3.58;1.52;;;2.30;99.90;;;;;;4995962;28;20030;-93
2023/11/28 08:40:56;;;;;;;3.22;1.42;;;2.40;99.90;;;;;;5000348;28;20026;-93
2023/11/28 08:43:22;;;;;;;3.38;1.38;;;2.50;99.90;;;;;;4999197;28;20040;-93
2023/11/28 08:45:47;;;;;;;3.20;1.65;;;2.50;99.90;;;;;;4996308;28;20031;-93
2023/11/28 08:48:13;;;;;;;4.20;2.17;;;2.40;99.90;;;;;;5015453;28;20031;-93
2023/11/28 08:50:39;;;;;;;3.15;1.42;;;2.70;99.90;;;;;;5000761;28;20026;-94
2023/11/28 08:53:04;;;;;;;4.22;1.58;;;2.70;99.90;;;;;;5002019;28;20125;-94
2023/11/28 08:55:30;;;;;;;5.85;1.63;;;2.70;99.90;;;;;;5026154;28;20260;-95
2023/11/28 08:57:56;;;;;;;3.08;1.38;;;2.80;99.90;;;;;;5010640;28;20025;-96
2023/11/28 09:00:22;;;;;;;2.55;1.52;;;2.80;99.90;;;;;;5013760;28;20057;-95
2023/11/28 09:02:47;;;;;;;2.95;1.40;;;2.80;99.90;;;;;;5013339;28;20030;-95
2023/11/28 09:05:14;;;;;;;3.15;1.35;;;2.90;99.90;;;;;;5011821;28;20034;-96
2023/11/28 09:07:40;;;;;;;2.65;1.17;;;2.80;99.90;;;;;;5010072;28;20061;-95
2023/11/28 09:10:08;;;;;;;2.20;1.08;;;2.60;99.90;;;;;;5014067;28;20018;-95
2023/11/28 09:12:35;;;;;;;2.85;1.58;;;2.50;99.90;;;;;;5022333;28;20028;-95
2023/11/28 09:15:00;;;;;;;1.90;1.42;;;2.60;99.90;;;;;;5013169;28;20042;-95
2023/11/28 09:17:26;;;;;;;7.65;1.88;;;2.60;99.90;;;;;;5013497;28;20105;-95
2023/11/28 09:19:52;;;;;;;5.97;1.55;;;2.60;99.90;;;;;;5016759;28;20049;-95
2023/11/28 09:22:17;;;;;;;4.35;1.42;;;2.60;99.90;;;;;;5011224;28;20022;-95
2023/11/28 09:24:43;;;;;;;2.38;1.60;;;2.70;99.90;;;;;;5018591;28;20041;-95
2023/11/28 09:27:10;;;;;;;1.85;1.42;;;2.90;99.90;;;;;;5012392;28;20039;-95
2023/11/28 09:29:36;;;;;;;2.83;1.58;;;2.90;99.90;;;;;;5017701;28;20018;-95
2023/11/28 09:32:02;;;;;;;4.15;2.10;;;2.80;99.90;;;;;;5030907;28;20018;-96
2023/11/28 09:34:28;;;;;;;3.90;1.50;;;2.80;99.90;;;;;;5012977;28;20026;-96
2023/11/28 09:36:55;;;;;;;5.28;2.20;;;2.70;99.90;;;;;;5011199;28;20073;-96
2023/11/28 09:39:20;;;;;;;2.30;1.50;;;2.80;99.90;;;;;;5023350;28;20018;-95
2023/11/28 09:41:47;;;;;;;3.75;1.95;;;2.70;99.90;;;;;;5029237;28;20042;-94
2023/11/28 09:44:16;;;;;;;4.65;2.17;;;2.80;99.90;;;;;;5026812;28;20173;-95
2023/11/28 09:46:51;;;;;;;4.82;1.85;;;2.90;99.90;;;;;;5011932;28;20097;-92
2023/11/28 09:49:18;;;;;;;5.18;1.60;;;2.80;99.90;;;;;;5030825;28;20033;-94
2023/11/28 09:51:46;;;;;;;3.28;1.65;;;2.80;99.90;;;;;;5010076;28;20045;-94
2023/11/28 09:54:15;;;;;;;;;;;2.90;99.90;;;;;;5010173;28;20303;-94
2023/11/28 09:56:44;;;;;;;3.97;2.03;;;2.90;99.90;;;;;;5026075;28;19909;-94
2023/11/28 09:59:13;;;;;;;3.22;1.38;;;3.00;99.90;;;;;;5007975;28;20022;-94
2023/11/28 10:01:42;;;;;;;2.42;1.83;;;3.10;99.90;;;;;;5011953;28;20026;-94
2023/11/28 10:04:08;;;;;;;2.40;1.63;;;3.10;99.90;;;;;;5023792;28;20060;-94
2023/11/28 10:06:34;;;;;;;4.75;2.90;;;3.20;99.90;;;;;;5023168;28;20094;-93
2023/11/28 10:09:01;;;;;;;;;;;3.20;99.90;;;;;;5011157;28;20106;-94
2023/11/28 10:11:32;;;;;;;3.45;2.00;;;3.00;99.90;;;;;;5026306;28;19897;-95
2023/11/28 10:13:58;;;;;;;2.58;1.52;;;3.00;99.90;;;;;;5009190;28;20014;-93
2023/11/28 10:16:43;;;;;;;2.90;1.70;;;3.20;99.90;;;;;;5008428;28;20107;-94
2023/11/28 10:19:09;;;;;;;5.90;1.65;;;3.20;99.90;;;;;;5011498;28;20030;-94
2023/11/28 10:21:35;;;;;;;2.92;1.50;;;3.30;99.90;;;;;;5022660;28;20080;-94
2023/11/28 10:24:01;;;;;;;2.17;1.73;;;3.20;99.90;;;;;;5008828;28;20018;-93
2023/11/28 10:26:27;;;;;;;2.92;1.50;;;3.20;99.90;;;;;;5025015;28;20086;-95
2023/11/28 10:28:54;;;;;;;3.40;1.60;;;3.30;99.90;;;;;;5007707;28;20041;-95
2023/11/28 10:31:20;;;;;;;2.50;1.67;;;3.30;99.90;;;;;;5007983;28;20030;-93
2023/11/28 10:33:45;;;;;;;3.03;1.83;;;3.40;99.90;;;;;;5006072;28;20150;-93
2023/11/28 10:36:14;;;;;;;3.97;1.88;;;3.20;99.90;;;;;;5007252;28;20014;-94
2023/11/28 10:38:39;;;;;;;2.95;1.45;;;3.30;99.90;;;;;;5005482;28;20042;-94
2023/11/28 10:41:05;;;;;;;2.78;1.50;;;3.40;99.90;;;;;;5023183;28;20253;-94
2023/11/28 10:43:31;;;;;;;2.45;1.90;;;3.30;99.90;;;;;;5024363;28;20053;-96
2023/11/28 10:45:58;;;;;;;5.03;3.03;;;3.20;99.90;;;;;;5010417;28;20018;-95
2023/11/28 10:48:24;;;;;;;5.03;2.38;;;3.30;99.90;;;;;;5013645;28;20046;-94
2023/11/28 10:50:49;;;;;;;4.78;2.03;;;3.30;99.90;;;;;;5007185;28;20111;-95
2023/11/28 10:53:17;;;;;;;4.05;2.58;;;3.40;99.90;;;;;;5011126;28;20030;-95
2023/11/28 10:55:54;;;;;;;3.40;2.20;;;3.30;99.90;;;;;;5010530;28;20369;-94
2023/11/28 10:58:20;;;;;;;7.33;2.70;;;3.30;99.90;;;;;;5009329;28;20141;-94
2023/11/28 11:00:52;;;;;;;5.07;2.28;;;3.30;99.90;;;;;;5009171;28;20019;-95
2023/11/28 11:03:26;;;;;;;3.00;1.70;;;3.30;99.90;;;;;;5026998;28;20802;-96
2023/11/28 11:05:51;;;;;;;2.97;1.75;;;3.40;99.90;;;;;;5009787;28;20540;-95
2023/11/28 11:08:18;;;;;;;3.03;1.83;;;3.50;99.90;;;;;;5010549;28;20030;-94
2023/11/28 11:10:44;;;;;;;5.93;2.50;;;3.50;99.90;;;;;;5013367;28;20046;-95
2023/11/28 11:13:16;;;;;;;4.28;2.20;;;3.30;99.90;;;;;;5025353;28;20034;-95
2023/11/28 11:15:55;;;;;;;3.30;1.42;;;3.10;99.90;;;;;;5023562;28;20065;-95
2023/11/28 11:18:43;;;;;;;4.75;1.75;;;3.40;99.90;;;;;;5026990;28;20038;-95
2023/11/28 11:21:33;;;;;;;5.32;1.88;;;3.10;99.90;;;;;;5010167;28;20283;-93
2023/11/28 11:24:00;;;;;;;4.45;1.80;;;3.10;99.90;;;;;;5006893;28;20034;-93
2023/11/28 11:26:39;;;;;;;3.95;2.20;;;3.20;99.90;;;;;;5009108;28;20031;-94
2023/11/28 11:29:28;;;;;;;4.78;2.13;;;3.20;99.90;;;;;;5019632;28;20033;-94
2023/11/28 11:31:58;;;;;;;2.38;1.80;;;3.20;99.90;;;;;;5008350;28;20038;-93
2023/11/28 11:34:49;;;;;;;3.28;1.67;;;3.20;99.90;;;;;;5002164;28;20026;-91
2023/11/28 11:37:19;;;;;;;3.30;1.45;;;3.40;99.90;;;;;;4995425;28;20084;-92
2023/11/28 11:39:50;;;;;;;4.47;1.73;;;3.40;99.90;;;;;;5001403;28;20368;-95
2023/11/28 11:42:24;;;;;;;7.90;2.05;;;3.50;99.90;;;;;;5016018;28;20033;-92
2023/11/28 11:44:57;;;;;;;5.30;2.20;;;3.40;99.90;;;;;;5013769;28;20030;-94
2023/11/28 11:47:26;;;;;;;5.15;2.08;;;3.40;99.90;;;;;;5023082;28;20027;-94
2023/11/28 11:49:55;;;;;;;4.28;2.45;;;3.40;99.90;;;;;;5001240;28;20559;-94
2023/11/28 11:52:24;;;;;;;4.78;2.35;;;3.50;99.90;;;;;;5000276;28;20081;-94
2023/11/28 11:54:52;;;;;;;7.20;2.55;;;3.40;99.90;;;;;;5020020;28;20027;-93
2023/11/28 11:57:20;;;;;;;4.07;2.00;;;3.40;99.90;;;;;;5000899;28;20054;-94
2023/11/28 11:59:47;;;;;;;4.60;2.10;;;3.50;99.90;;;;;;4999762;28;20042;-94
2023/11/28 12:02:13;;;;;;;3.60;1.85;;;3.60;99.90;;;;;;4998214;28;20034;-94
2023/11/28 12:04:44;;;;;;;3.70;2.22;;;3.80;99.90;;;;;;4998215;28;20030;-94
2023/11/28 12:07:12;;;;;;;4.25;2.08;;;3.80;99.90;;;;;;4998001;28;20045;-94
2023/11/28 12:09:38;;;;;;;5.50;2.17;;;3.80;99.90;;;;;;5014299;28;20026;-94
2023/11/28 12:12:13;;;;;;;3.92;2.20;;;3.70;99.90;;;;;;4998680;28;20070;-94
2023/11/28 12:14:40;;;;;;;2.83;2.05;;;3.70;99.90;;;;;;4995354;28;20086;-94
2023/11/28 12:17:08;;;;;;;9.25;3.03;;;3.60;99.90;;;;;;5013555;28;20022;-93
2023/11/28 12:19:34;;;;;;;4.20;2.35;;;3.50;99.90;;;;;;5009585;28;20324;-94
2023/11/28 12:22:03;;;;;;;4.15;2.03;;;3.50;99.90;;;;;;5002307;28;20030;-94
2023/11/28 12:24:31;;;;;;;3.45;2.10;;;3.60;99.90;;;;;;4997005;28;20255;-94
2023/11/28 12:27:01;;;;;;;4.50;2.72;;;3.60;99.90;;;;;;4997004;28;20098;-94
2023/11/28 12:29:26;;;;;;;6.45;3.55;;;3.70;99.90;;;;;;5016342;28;20491;-94
2023/11/28 12:31:55;;;;;;;5.20;2.67;;;3.80;99.90;;;;;;5000928;28;20026;-93
2023/11/28 12:34:25;;;;;;;6.70;2.50;;;3.70;99.90;;;;;;5012335;28;20109;-94
2023/11/28 12:36:55;;;;;;;4.60;2.30;;;3.70;99.90;;;;;;5016016;28;20679;-92
2023/11/28 12:39:25;;;;;;;3.38;2.33;;;3.50;99.90;;;;;;5003494;28;20042;-94
2023/11/28 12:41:55;;;;;;;7.53;2.83;;;3.60;99.90;;;;;;4996945;28;20019;-93
2023/11/28 12:44:28;;;;;;;3.10;2.05;;;3.60;99.90;;;;;;5013095;28;20064;-94
2023/11/28 12:46:58;;;;;;;4.65;2.42;;;3.60;99.90;;;;;;4997742;28;20026;-94
2023/11/28 12:49:27;;;;;;;4.20;2.45;;;3.50;99.90;;;;;;4999868;28;20158;-92
2023/11/28 12:52:00;;;;;;;5.95;3.08;;;3.60;99.90;;;;;;4974834;28;20173;-94
2023/11/28 12:54:25;;;;;;;5.63;2.58;;;3.60;99.90;;;;;;5011013;28;20035;-92
2023/11/28 12:56:57;;;;;;;4.28;2.28;;;3.60;99.90;;;;;;4995637;28;20107;-95
2023/11/28 12:59:23;;;;;;;3.20;2.38;;;3.80;99.90;;;;;;4995319;28;20663;-92